Time,TemperatureF,DewpointF,PressureIn,WindDirection,WindDirectionDegrees,WindSpeedMPH,WindSpeedGustMPH,Humidity,HourlyPrecipIn,Conditions,Clouds,dailyrainin,SoftwareType,DateUTC
2013-02-27 01:11:00,9.0,5.0,-100.00,NNE,30,5.0,7.0,84,-99.99,,,0.00,,2013-02-27 08:11:00,
2013-02-27 01:21:00,9.0,5.0,-100.00,NNE,30,5.0,7.0,84,-99.99,,,0.00,,2013-02-27 08:21:00,
2013-02-27 01:31:00,4.0,-1.0,-100.00,WSW,240,1.0,4.0,80,-99.99,,,0.00,,2013-02-27 08:31:00,
2013-02-27 01:42:00,4.0,-1.0,-100.00,WSW,240,1.0,4.0,80,-99.99,,,0.00,,2013-02-27 08:42:00,
2013-02-27 01:52:00,4.0,-1.0,-100.00,WSW,240,1.0,4.0,80,-99.99,,,0.00,,2013-02-27 08:52:00,
2013-02-27 02:01:00,4.0,-1.0,-100.00,WSW,240,1.0,4.0,80,-99.99,,,0.00,,2013-02-27 09:01:00,
2013-02-27 02:11:00,4.0,0.0,-100.00,ENE,60,1.0,4.0,83,-99.99,,,0.00,,2013-02-27 09:11:00,
2013-02-27 02:21:00,4.0,0.0,-100.00,ENE,60,1.0,4.0,83,-99.99,,,0.00,,2013-02-27 09:21:00,
2013-02-27 02:31:00,3.0,0.0,-100.00,NNE,15,3.0,6.0,85,-99.99,,,-99.99,,2013-02-27 09:31:00,
2013-02-27 02:32:00,2.0,-1.0,-100.00,NNE,30,3.0,6.0,84,-99.99,,,0.00,,2013-02-27 09:32:00,
2013-02-27 02:41:00,2.0,-1.0,-100.00,NNE,30,3.0,6.0,84,-99.99,,,0.00,,2013-02-27 09:41:00,
2013-02-27 02:51:00,2.0,-1.0,-100.00,NNE,30,3.0,6.0,84,-99.99,,,0.00,,2013-02-27 09:51:00,
2013-02-27 03:12:00,3.0,0.0,-100.00,NNE,15,3.0,6.0,85,-99.99,,,-99.99,,2013-02-27 10:12:00,
2013-02-27 03:21:00,3.0,0.0,-100.00,NNE,15,3.0,6.0,85,-99.99,,,-99.99,,2013-02-27 10:21:00,
2013-02-27 04:12:00,1.0,-3.0,-100.00,NE,40,2.0,3.0,83,-99.99,,,0.00,,2013-02-27 11:12:00,
2013-02-27 04:22:00,1.0,-3.0,-100.00,NE,40,2.0,3.0,83,-99.99,,,0.00,,2013-02-27 11:22:00,
2013-02-27 04:31:00,1.0,-3.0,-100.00,NE,55,1.0,3.0,82,-99.99,,,0.00,,2013-02-27 11:31:00,
2013-02-27 04:42:00,1.0,-3.0,-100.00,NE,55,1.0,3.0,82,-99.99,,,0.00,,2013-02-27 11:42:00,
2013-02-27 04:52:00,1.0,-3.0,-100.00,NE,55,1.0,3.0,82,-99.99,,,0.00,,2013-02-27 11:52:00,
2013-02-27 05:01:00,1.0,-3.0,-100.00,NE,55,1.0,3.0,82,-99.99,,,0.00,,2013-02-27 12:01:00,
2013-02-27 05:22:00,0.0,-4.0,-100.00,SSE,165,2.0,4.0,82,-99.99,,,0.00,,2013-02-27 12:22:00,
2013-02-27 05:32:00,1.0,-3.0,-100.00,South,180,1.0,2.0,82,-99.99,,,0.00,,2013-02-27 12:32:00,
2013-02-27 05:42:00,1.0,-3.0,-100.00,South,180,1.0,2.0,82,-99.99,,,0.00,,2013-02-27 12:42:00,
2013-02-27 05:52:00,1.0,-3.0,-100.00,South,180,1.0,2.0,82,-99.99,,,0.00,,2013-02-27 12:52:00,
2013-02-27 06:11:00,1.0,-3.0,-100.00,SSW,200,1.0,3.0,82,-99.99,,,0.00,,2013-02-27 13:11:00,
2013-02-27 06:22:00,1.0,-3.0,-100.00,SSW,200,1.0,3.0,82,-99.99,,,0.00,,2013-02-27 13:22:00,
2013-02-27 07:00:00,5.0,1.0,-100.00,SSW,205,1.0,3.0,83,-99.99,,,0.00,,2013-02-27 14:00:00,
2013-02-27 07:12:00,3.0,-1.0,-100.00,SSW,195,1.0,2.0,83,-99.99,,,0.00,,2013-02-27 14:12:00,
2013-02-27 07:21:00,3.0,-1.0,-100.00,SSW,195,1.0,2.0,83,-99.99,,,0.00,,2013-02-27 14:21:00,
2013-02-27 07:31:00,5.0,1.0,-100.00,SSW,205,1.0,3.0,83,-99.99,,,0.00,,2013-02-27 14:31:00,
2013-02-27 07:42:00,5.0,1.0,-100.00,SSW,205,1.0,3.0,83,-99.99,,,0.00,,2013-02-27 14:42:00,
2013-02-27 07:52:00,5.0,1.0,-100.00,SSW,205,1.0,3.0,83,-99.99,,,0.00,,2013-02-27 14:52:00,
2013-02-27 08:01:00,6.0,2.0,-100.00,SSE,165,1.0,3.0,83,-99.99,,,0.00,,2013-02-27 15:01:00,
2013-02-27 08:12:00,5.0,1.0,-100.00,South,190,2.0,3.0,83,-99.99,,,0.00,,2013-02-27 15:12:00,
2013-02-27 08:22:00,5.0,1.0,-100.00,South,190,2.0,3.0,83,-99.99,,,0.00,,2013-02-27 15:22:00,
2013-02-27 08:32:00,6.0,2.0,-100.00,SSE,165,1.0,3.0,83,-99.99,,,0.00,,2013-02-27 15:32:00,
2013-02-27 08:42:00,6.0,2.0,-100.00,SSE,165,1.0,3.0,83,-99.99,,,0.00,,2013-02-27 15:42:00,
2013-02-27 08:52:00,6.0,2.0,-100.00,SSE,165,1.0,3.0,83,-99.99,,,0.00,,2013-02-27 15:52:00,
2013-02-27 09:00:00,9.0,5.0,-100.00,SSW,195,0.0,1.0,81,-99.99,,,0.00,,2013-02-27 16:00:00,
2013-02-27 09:11:00,7.0,3.0,-100.00,NE,40,1.0,3.0,82,-99.99,,,0.00,,2013-02-27 16:11:00,
2013-02-27 09:22:00,7.0,3.0,-100.00,NE,40,1.0,3.0,82,-99.99,,,0.00,,2013-02-27 16:22:00,
2013-02-27 09:32:00,9.0,5.0,-100.00,SSW,195,0.0,1.0,81,-99.99,,,0.00,,2013-02-27 16:32:00,
2013-02-27 09:42:00,9.0,5.0,-100.00,SSW,195,0.0,1.0,81,-99.99,,,0.00,,2013-02-27 16:42:00,
2013-02-27 09:52:00,9.0,5.0,-100.00,SSW,195,0.0,1.0,81,-99.99,,,0.00,,2013-02-27 16:52:00,
2013-02-27 10:01:00,20.0,10.0,-100.00,NNE,25,1.0,3.0,65,-99.99,,,0.00,,2013-02-27 17:01:00,
2013-02-27 10:21:00,12.0,6.0,-100.00,ENE,75,1.0,4.0,78,-99.99,,,0.00,,2013-02-27 17:21:00,
2013-02-27 10:32:00,20.0,10.0,-100.00,NNE,25,1.0,3.0,65,-99.99,,,0.00,,2013-02-27 17:32:00,
2013-02-27 10:41:00,20.0,10.0,-100.00,NNE,25,1.0,3.0,65,-99.99,,,0.00,,2013-02-27 17:41:00,
2013-02-27 10:52:00,20.0,10.0,-100.00,NNE,25,1.0,3.0,65,-99.99,,,0.00,,2013-02-27 17:52:00,
2013-02-27 11:00:00,26.0,12.0,-100.00,SW,225,13.0,17.0,54,-99.99,,,0.00,,2013-02-27 18:00:00,
2013-02-27 11:11:00,24.0,7.0,-100.00,SSW,210,4.0,7.0,47,-99.99,,,0.00,,2013-02-27 18:11:00,
2013-02-27 11:22:00,24.0,7.0,-100.00,SSW,210,4.0,7.0,47,-99.99,,,0.00,,2013-02-27 18:22:00,
2013-02-27 11:31:00,27.0,13.0,-100.00,SW,235,13.0,18.0,54,-99.99,,,0.00,,2013-02-27 18:31:00,
2013-02-27 11:32:00,26.0,12.0,-100.00,SW,225,13.0,17.0,54,-99.99,,,0.00,,2013-02-27 18:32:00,
2013-02-27 11:42:00,26.0,12.0,-100.00,SW,225,13.0,17.0,54,-99.99,,,0.00,,2013-02-27 18:42:00,
2013-02-27 11:51:00,26.0,12.0,-100.00,SW,225,13.0,17.0,54,-99.99,,,0.00,,2013-02-27 18:51:00,
2013-02-27 12:11:00,27.0,13.0,-100.00,SW,235,13.0,18.0,54,-99.99,,,0.00,,2013-02-27 19:11:00,
2013-02-27 12:21:00,27.0,13.0,-100.00,SW,235,13.0,18.0,54,-99.99,,,0.00,,2013-02-27 19:21:00,
2013-02-27 13:00:00,27.0,14.0,-100.00,SW,235,13.0,19.0,57,-99.99,,,0.00,,2013-02-27 20:00:00,
2013-02-27 13:11:00,29.0,15.0,-100.00,SW,235,10.0,17.0,54,-99.99,,,0.00,,2013-02-27 20:11:00,
2013-02-27 13:21:00,29.0,15.0,-100.00,SW,235,10.0,17.0,54,-99.99,,,0.00,,2013-02-27 20:21:00,
2013-02-27 13:31:00,27.0,14.0,-100.00,SW,235,13.0,19.0,57,-99.99,,,0.00,,2013-02-27 20:31:00,
2013-02-27 13:42:00,27.0,14.0,-100.00,SW,235,13.0,19.0,57,-99.99,,,0.00,,2013-02-27 20:42:00,
2013-02-27 13:52:00,27.0,14.0,-100.00,SW,235,13.0,19.0,57,-99.99,,,0.00,,2013-02-27 20:52:00,
2013-02-27 14:01:00,28.0,13.0,-100.00,WSW,245,15.0,20.0,51,-99.99,,,0.00,,2013-02-27 21:01:00,
2013-02-27 14:11:00,28.0,14.0,-100.00,SW,235,17.0,22.0,55,-99.99,,,0.00,,2013-02-27 21:11:00,
2013-02-27 14:21:00,28.0,14.0,-100.00,SW,235,17.0,22.0,55,-99.99,,,0.00,,2013-02-27 21:21:00,
2013-02-27 14:31:00,28.0,13.0,-100.00,WSW,245,15.0,20.0,51,-99.99,,,0.00,,2013-02-27 21:31:00,
2013-02-27 14:42:00,28.0,13.0,-100.00,WSW,245,15.0,20.0,51,-99.99,,,0.00,,2013-02-27 21:42:00,
2013-02-27 14:51:00,28.0,13.0,-100.00,WSW,245,15.0,20.0,51,-99.99,,,0.00,,2013-02-27 21:51:00,
2013-02-27 15:11:00,29.0,12.0,-100.00,WSW,240,16.0,21.0,49,-99.99,,,0.00,,2013-02-27 22:11:00,
2013-02-27 15:21:00,29.0,12.0,-100.00,WSW,240,16.0,21.0,49,-99.99,,,0.00,,2013-02-27 22:21:00,
2013-02-27 15:31:00,30.0,11.0,-100.00,WSW,245,11.0,15.0,45,-99.99,,,0.00,,2013-02-27 22:31:00,
2013-02-27 15:42:00,30.0,11.0,-100.00,WSW,245,11.0,15.0,45,-99.99,,,0.00,,2013-02-27 22:42:00,
2013-02-27 15:51:00,30.0,11.0,-100.00,WSW,245,11.0,15.0,45,-99.99,,,0.00,,2013-02-27 22:51:00,
2013-02-27 16:01:00,30.0,11.0,-100.00,WSW,245,11.0,15.0,45,-99.99,,,0.00,,2013-02-27 23:01:00,
2013-02-27 16:32:00,28.0,11.0,-100.00,SW,235,11.0,22.0,48,-99.99,,,0.00,,2013-02-27 23:32:00,
2013-02-27 16:42:00,28.0,11.0,-100.00,SW,235,11.0,22.0,48,-99.99,,,0.00,,2013-02-27 23:42:00,
2013-02-27 16:52:00,28.0,11.0,-100.00,SW,235,11.0,22.0,48,-99.99,,,0.00,,2013-02-27 23:52:00,
2013-02-27 17:01:00,29.0,8.0,-100.00,WSW,245,11.0,14.0,42,-99.99,,,0.00,,2013-02-28 00:01:00,
2013-02-27 17:11:00,29.0,10.0,-100.00,WSW,240,11.0,13.0,44,-99.99,,,0.00,,2013-02-28 00:11:00,
2013-02-27 17:21:00,29.0,10.0,-100.00,WSW,240,11.0,13.0,44,-99.99,,,0.00,,2013-02-28 00:21:00,
2013-02-27 17:32:00,29.0,8.0,-100.00,WSW,245,11.0,14.0,42,-99.99,,,0.00,,2013-02-28 00:32:00,
2013-02-27 17:42:00,29.0,8.0,-100.00,WSW,245,11.0,14.0,42,-99.99,,,0.00,,2013-02-28 00:42:00,
2013-02-27 17:51:00,29.0,8.0,-100.00,WSW,245,11.0,14.0,42,-99.99,,,0.00,,2013-02-28 00:51:00,
2013-02-27 18:00:00,28.0,10.0,-100.00,SW,230,11.0,13.0,46,-99.99,,,0.00,,2013-02-28 01:00:00,
2013-02-27 18:11:00,28.0,10.0,-100.00,WSW,240,9.0,16.0,46,-99.99,,,0.00,,2013-02-28 01:11:00,
2013-02-27 18:21:00,28.0,10.0,-100.00,WSW,240,9.0,16.0,46,-99.99,,,0.00,,2013-02-28 01:21:00,
2013-02-27 18:31:00,28.0,10.0,-100.00,SW,230,11.0,13.0,46,-99.99,,,0.00,,2013-02-28 01:31:00,
2013-02-27 18:41:00,28.0,10.0,-100.00,SW,230,11.0,13.0,46,-99.99,,,0.00,,2013-02-28 01:41:00,
2013-02-27 18:51:00,28.0,10.0,-100.00,SW,230,11.0,13.0,46,-99.99,,,0.00,,2013-02-28 01:51:00,
2013-02-27 19:01:00,27.0,12.0,-100.00,SW,230,21.0,26.0,52,-99.99,,,0.00,,2013-02-28 02:01:00,
2013-02-27 19:11:00,28.0,11.0,-100.00,SW,230,12.0,16.0,48,-99.99,,,0.00,,2013-02-28 02:11:00,
2013-02-27 19:22:00,28.0,11.0,-100.00,SW,230,12.0,16.0,48,-99.99,,,0.00,,2013-02-28 02:22:00,
2013-02-27 19:31:00,27.0,12.0,-100.00,SW,230,21.0,26.0,52,-99.99,,,0.00,,2013-02-28 02:31:00,
2013-02-27 19:41:00,27.0,12.0,-100.00,SW,230,21.0,26.0,52,-99.99,,,0.00,,2013-02-28 02:41:00,
2013-02-27 19:51:00,27.0,12.0,-100.00,SW,230,21.0,26.0,52,-99.99,,,0.00,,2013-02-28 02:51:00,
2013-02-27 20:01:00,24.0,10.0,-100.00,SW,215,8.0,12.0,54,-99.99,,,0.00,,2013-02-28 03:01:00,
2013-02-27 20:11:00,25.0,12.0,-100.00,SW,225,11.0,17.0,56,-99.99,,,0.00,,2013-02-28 03:11:00,
2013-02-27 20:21:00,25.0,12.0,-100.00,SW,225,11.0,17.0,56,-99.99,,,0.00,,2013-02-28 03:21:00,
2013-02-27 20:31:00,24.0,10.0,-100.00,SW,215,8.0,12.0,54,-99.99,,,0.00,,2013-02-28 03:31:00,
2013-02-27 20:41:00,24.0,10.0,-100.00,SW,215,8.0,12.0,54,-99.99,,,0.00,,2013-02-28 03:41:00,
2013-02-27 20:51:00,24.0,10.0,-100.00,SW,215,8.0,12.0,54,-99.99,,,0.00,,2013-02-28 03:51:00,
2013-02-27 21:11:00,21.0,7.0,-100.00,SW,235,7.0,10.0,55,-99.99,,,0.00,,2013-02-28 04:11:00,
2013-02-27 21:21:00,21.0,7.0,-100.00,SW,235,7.0,10.0,55,-99.99,,,0.00,,2013-02-28 04:21:00,
2013-02-27 21:31:00,20.0,7.0,-100.00,WSW,240,12.0,14.0,55,-99.99,,,0.00,,2013-02-28 04:31:00,
2013-02-27 21:42:00,20.0,7.0,-100.00,WSW,240,12.0,14.0,55,-99.99,,,0.00,,2013-02-28 04:42:00,
2013-02-27 21:51:00,20.0,7.0,-100.00,WSW,240,12.0,14.0,55,-99.99,,,0.00,,2013-02-28 04:51:00,
2013-02-27 22:01:00,20.0,7.0,-100.00,WSW,240,12.0,14.0,55,-99.99,,,0.00,,2013-02-28 05:01:00,
2013-02-27 22:11:00,21.0,6.0,-100.00,WSW,250,12.0,15.0,52,-99.99,,,0.00,,2013-02-28 05:11:00,
2013-02-27 22:22:00,21.0,6.0,-100.00,WSW,250,12.0,15.0,52,-99.99,,,0.00,,2013-02-28 05:22:00,
2013-02-27 22:31:00,20.0,6.0,-100.00,WSW,250,11.0,13.0,54,-99.99,,,0.00,,2013-02-28 05:31:00,
2013-02-27 22:42:00,20.0,6.0,-100.00,WSW,250,11.0,13.0,54,-99.99,,,0.00,,2013-02-28 05:42:00,
2013-02-27 22:52:00,20.0,6.0,-100.00,WSW,250,11.0,13.0,54,-99.99,,,0.00,,2013-02-28 05:52:00,
2013-02-27 23:01:00,20.0,6.0,-100.00,SW,220,3.0,6.0,52,-99.99,,,0.00,,2013-02-28 06:01:00,
2013-02-27 23:11:00,22.0,6.0,-100.00,SW,215,4.0,8.0,48,-99.99,,,0.00,,2013-02-28 06:11:00,
2013-02-27 23:22:00,22.0,6.0,-100.00,SW,215,4.0,8.0,48,-99.99,,,0.00,,2013-02-28 06:22:00,
2013-02-27 23:32:00,20.0,6.0,-100.00,SW,220,3.0,6.0,52,-99.99,,,0.00,,2013-02-28 06:32:00,
2013-02-27 23:42:00,20.0,6.0,-100.00,SW,220,3.0,6.0,52,-99.99,,,0.00,,2013-02-28 06:42:00,
2013-02-27 23:51:00,20.0,6.0,-100.00,SW,220,3.0,6.0,52,-99.99,,,0.00,,2013-02-28 06:51:00,